Time;durP1;ratioP1;P1;durP2;ratioP2;P2;SDS_P1;SDS_P2;PMS_P1;PMS_P2;Temp;Humidity;BMP_temperature;BMP_pressure;BME280_temperature;BME280_humidity;BME280_pressure;Samples;Min_cycle;Max_cycle;Signal;HPM_P1;HPM_P2
2022/01/03 00:01:49;;;;;;;19.20;3.77;;;10.80;99.90;;;;;;5094292;28;20201;-86
2022/01/03 00:04:19;;;;;;;15.50;3.60;;;10.80;99.90;;;;;;5094288;28;20189;-86
2022/01/03 00:06:50;;;;;;;19.57;3.77;;;10.80;99.90;;;;;;5095162;28;20327;-87
2022/01/03 00:09:41;;;;;;;18.17;3.37;;;10.80;99.90;;;;;;5094720;28;20628;-85
2022/01/03 00:12:12;;;;;;;24.87;3.80;;;10.80;99.90;;;;;;5094330;28;20203;-84
2022/01/03 00:14:44;;;;;;;23.13;4.43;;;10.80;99.90;;;;;;5093920;28;20217;-84
2022/01/03 00:17:14;;;;;;;28.57;3.60;;;10.80;99.90;;;;;;5093835;28;20611;-87
2022/01/03 00:19:43;;;;;;;20.80;4.20;;;10.80;99.90;;;;;;5092599;28;20216;-86
2022/01/03 00:22:15;;;;;;;20.87;3.77;;;10.80;99.90;;;;;;5094058;28;20213;-86
2022/01/03 00:24:50;;;;;;;20.95;4.80;;;10.80;99.90;;;;;;5092922;28;20782;-85
2022/01/03 00:27:19;;;;;;;18.80;3.83;;;10.90;99.90;;;;;;5093841;28;20196;-87
2022/01/03 00:29:52;;;;;;;17.27;3.73;;;10.90;99.90;;;;;;5092120;28;20201;-85
2022/01/03 00:32:23;;;;;;;19.03;3.20;;;10.90;99.90;;;;;;5093633;28;20197;-86
2022/01/03 00:34:52;;;;;;;21.53;4.10;;;10.90;99.90;;;;;;5093559;28;20190;-86
2022/01/03 00:37:22;;;;;;;19.00;3.93;;;10.90;99.90;;;;;;5093105;28;20197;-85
2022/01/03 00:39:51;;;;;;;22.07;3.63;;;10.90;99.90;;;;;;5093898;28;20664;-88
2022/01/03 00:42:21;;;;;;;25.03;4.27;;;10.80;99.90;;;;;;5094371;28;20209;-87
2022/01/03 00:44:54;;;;;;;26.03;4.13;;;10.80;99.90;;;;;;5093735;28;20533;-87
2022/01/03 00:47:31;;;;;;;22.73;4.03;;;10.80;99.90;;;;;;5093874;28;20193;-86
2022/01/03 00:50:07;;;;;;;22.40;4.70;;;10.80;99.90;;;;;;5093542;28;20195;-86
2022/01/03 00:52:35;;;;;;;16.73;3.70;;;10.80;99.90;;;;;;5094009;28;20200;-86
2022/01/03 00:55:09;;;;;;;26.97;4.47;;;10.80;99.90;;;;;;5094079;28;20211;-86
2022/01/03 00:57:53;;;;;;;18.73;3.70;;;10.70;99.90;;;;;;5094497;28;20586;-85
2022/01/03 01:00:22;;;;;;;17.50;3.03;;;10.80;99.90;;;;;;5095418;28;20202;-87
2022/01/03 01:02:57;;;;;;;25.80;3.93;;;10.80;99.90;;;;;;5094897;28;20208;-87
2022/01/03 01:05:27;;;;;;;25.53;4.20;;;10.80;99.90;;;;;;5093906;28;20655;-87
2022/01/03 01:07:57;;;;;;;16.53;3.67;;;10.80;99.90;;;;;;5097410;28;20205;-88
2022/01/03 01:10:32;;;;;;;17.07;3.57;;;10.70;99.90;;;;;;5098024;28;20242;-88
2022/01/03 01:13:10;;;;;;;18.17;3.30;;;10.80;99.90;;;;;;5097919;28;20287;-87
2022/01/03 01:15:39;;;;;;;20.70;4.27;;;10.90;99.90;;;;;;5097152;28;20200;-85
2022/01/03 01:18:06;;;;;;;23.80;4.70;;;10.90;99.90;;;;;;5096786;28;20232;-85
2022/01/03 01:20:47;;;;;;;23.70;4.40;;;10.80;99.90;;;;;;5097575;28;20205;-85
2022/01/03 01:23:21;;;;;;;19.50;3.90;;;10.90;99.90;;;;;;5097737;28;20292;-85
2022/01/03 01:28:41;;;;;;;22.93;3.80;;;10.90;99.90;;;;;;5096426;28;20192;-87
2022/01/03 01:31:12;;;;;;;19.73;3.67;;;10.90;99.90;;;;;;5096950;28;20201;-87
2022/01/03 01:33:43;;;;;;;20.73;4.53;;;11.00;99.90;;;;;;5095773;28;20625;-87
2022/01/03 01:36:12;;;;;;;26.77;5.10;;;11.00;99.90;;;;;;5096972;28;20189;-87
2022/01/03 01:38:50;;;;;;;19.47;4.30;;;11.00;99.90;;;;;;5096889;28;20213;-87
2022/01/03 01:41:29;;;;;;;26.30;4.97;;;11.00;99.90;;;;;;5096436;28;20247;-86
2022/01/03 01:44:01;;;;;;;26.92;5.25;;;11.00;99.90;;;;;;5094273;28;20894;-88
2022/01/03 01:46:33;;;;;;;25.13;6.40;;;11.00;99.90;;;;;;5095316;28;20224;-89
2022/01/03 01:49:04;;;;;;;24.57;5.17;;;11.10;99.90;;;;;;5096277;28;20190;-86
2022/01/03 01:51:35;;;;;;;21.13;3.80;;;11.10;99.90;;;;;;5096165;28;20194;-86
2022/01/03 01:54:06;;;;;;;23.53;3.87;;;11.10;99.90;;;;;;5096426;28;20220;-86
2022/01/03 01:56:43;;;;;;;21.93;4.20;;;11.10;99.90;;;;;;5096642;28;20201;-86
2022/01/03 01:59:12;;;;;;;21.20;4.10;;;11.00;99.90;;;;;;5096034;28;20208;-88
2022/01/03 02:01:52;;;;;;;21.37;4.30;;;11.10;99.90;;;;;;5095928;27;20201;-88
2022/01/03 02:04:33;;;;;;;20.37;4.17;;;11.00;99.90;;;;;;5096117;28;20284;-87
2022/01/03 02:07:13;;;;;;;20.13;4.50;;;11.00;99.90;;;;;;5095983;28;20196;-87
2022/01/03 02:09:43;;;;;;;20.63;3.67;;;11.00;99.90;;;;;;5096111;28;20197;-85
2022/01/03 02:12:14;;;;;;;30.10;4.43;;;11.10;99.90;;;;;;5095795;28;20216;-86
2022/01/03 02:14:43;;;;;;;21.70;3.57;;;11.00;99.90;;;;;;5095953;28;20280;-86
2022/01/03 02:17:17;;;;;;;18.83;3.80;;;11.00;99.90;;;;;;5096455;28;20200;-85
2022/01/03 02:20:10;;;;;;;22.47;4.20;;;10.90;99.90;;;;;;5096080;28;20224;-86
2022/01/03 02:22:40;;;;;;;20.43;3.90;;;11.00;99.90;;;;;;5096216;28;20198;-87
2022/01/03 02:25:08;;;;;;;23.97;4.70;;;11.00;99.90;;;;;;5096270;28;20214;-86
2022/01/03 02:27:38;;;;;;;22.30;3.67;;;11.00;99.90;;;;;;5095758;28;20548;-86
2022/01/03 02:30:07;;;;;;;30.67;4.10;;;11.00;99.90;;;;;;5095394;28;20208;-86
2022/01/03 02:32:34;;;;;;;25.47;4.47;;;11.00;99.90;;;;;;5095676;28;20198;-87
2022/01/03 02:35:05;;;;;;;23.90;4.53;;;10.90;99.90;;;;;;5095538;28;20208;-85
2022/01/03 02:37:41;;;;;;;24.20;3.87;;;10.90;99.90;;;;;;5095547;28;20285;-84
2022/01/03 02:40:14;;;;;;;28.80;4.97;;;10.90;99.90;;;;;;5094922;28;20220;-88
2022/01/03 02:42:44;;;;;;;21.37;4.10;;;10.90;99.90;;;;;;5095394;28;20558;-86
2022/01/03 02:45:18;;;;;;;20.07;5.17;;;10.90;99.90;;;;;;5094948;28;20237;-86
2022/01/03 02:47:54;;;;;;;23.23;4.37;;;10.90;99.90;;;;;;5095351;28;20205;-85
2022/01/03 02:50:26;;;;;;;21.13;4.50;;;10.80;99.90;;;;;;5093412;28;20274;-85
2022/01/03 02:52:57;;;;;;;28.03;4.60;;;10.90;99.90;;;;;;5094912;28;20208;-87
2022/01/03 02:55:29;;;;;;;21.97;3.90;;;10.90;99.90;;;;;;5094978;28;20194;-87
2022/01/03 02:58:06;;;;;;;20.60;3.70;;;10.80;99.90;;;;;;5094616;28;20629;-87
2022/01/03 03:00:35;;;;;;;24.20;4.00;;;10.80;99.90;;;;;;5094558;28;20644;-85
2022/01/03 03:03:05;;;;;;;18.65;4.38;;;10.70;99.90;;;;;;5092938;28;20422;-86
2022/01/03 03:05:32;;;;;;;21.13;4.27;;;10.70;99.90;;;;;;5094950;28;20211;-86
2022/01/03 03:08:07;;;;;;;20.13;3.97;;;10.70;99.90;;;;;;5094704;28;20190;-85
2022/01/03 03:10:40;;;;;;;22.87;4.60;;;10.70;99.90;;;;;;5094652;28;20190;-88
2022/01/03 03:13:09;;;;;;;25.37;5.33;;;10.60;99.90;;;;;;5094581;28;20193;-84
2022/01/03 03:15:39;;;;;;;18.47;4.20;;;10.60;99.90;;;;;;5094343;28;20197;-85
2022/01/03 03:18:07;;;;;;;21.70;4.17;;;10.60;99.90;;;;;;5094395;28;20197;-86
2022/01/03 03:20:35;;;;;;;26.13;5.07;;;10.70;99.90;;;;;;5094473;28;20201;-85
2022/01/03 03:23:05;;;;;;;25.77;4.43;;;10.70;99.90;;;;;;5094777;28;20201;-85
2022/01/03 03:25:36;;;;;;;25.57;4.40;;;10.60;99.90;;;;;;5093368;28;20262;-86
2022/01/03 03:28:07;;;;;;;26.57;4.43;;;10.60;99.90;;;;;;5093931;28;20196;-87
2022/01/03 03:30:42;;;;;;;29.37;4.20;;;10.60;99.90;;;;;;5094103;28;20605;-85
2022/01/03 03:33:15;;;;;;;23.03;3.53;;;10.60;99.90;;;;;;5094236;28;20667;-85
2022/01/03 03:35:45;;;;;;;24.07;4.00;;;10.60;99.90;;;;;;5093895;28;20227;-86
2022/01/03 03:38:12;;;;;;;25.13;5.33;;;10.60;99.90;;;;;;5093240;28;20205;-85
2022/01/03 03:40:45;;;;;;;34.17;5.17;;;10.60;99.90;;;;;;5093962;28;20194;-83
2022/01/03 03:43:16;;;;;;;24.47;5.13;;;10.60;99.90;;;;;;5094223;28;20554;-84
2022/01/03 03:45:48;;;;;;;19.83;4.33;;;10.60;99.90;;;;;;5093534;28;20240;-85
2022/01/03 03:48:21;;;;;;;30.07;4.83;;;10.60;99.90;;;;;;5094193;28;20258;-85
2022/01/03 03:50:54;;;;;;;23.20;5.47;;;10.80;99.90;;;;;;5093957;28;20205;-86
2022/01/03 03:53:22;;;;;;;26.40;5.03;;;10.80;99.90;;;;;;5093792;28;20204;-85
2022/01/03 03:55:54;;;;;;;21.43;4.53;;;10.80;99.90;;;;;;5093907;28;20288;-86
2022/01/03 03:58:21;;;;;;;22.07;4.13;;;10.90;99.90;;;;;;5093541;28;20193;-85
2022/01/03 04:00:49;;;;;;;23.43;4.23;;;10.90;99.90;;;;;;5093764;28;20642;-85
2022/01/03 04:03:17;;;;;;;25.93;4.73;;;10.90;99.90;;;;;;5093865;28;20209;-84
2022/01/03 04:05:49;;;;;;;31.97;6.53;;;10.90;99.90;;;;;;5093408;28;20246;-84
2022/01/03 04:08:22;;;;;;;26.00;4.97;;;10.90;99.90;;;;;;5093400;28;20201;-85
2022/01/03 04:10:56;;;;;;;24.87;3.70;;;10.80;99.90;;;;;;5093331;28;20201;-84
2022/01/03 04:13:24;;;;;;;17.17;3.73;;;10.80;99.90;;;;;;5094017;28;20188;-84
2022/01/03 04:15:51;;;;;;;17.90;3.67;;;10.70;99.90;;;;;;5093500;28;20213;-85
2022/01/03 04:18:18;;;;;;;23.77;3.10;;;10.70;99.90;;;;;;5093561;28;20209;-86
2022/01/03 04:20:47;;;;;;;22.47;4.77;;;10.60;99.90;;;;;;5093095;28;20421;-86
2022/01/03 04:23:17;;;;;;;23.03;4.30;;;10.80;99.90;;;;;;5093614;28;20473;-86
2022/01/03 04:25:45;;;;;;;19.03;3.43;;;10.70;99.90;;;;;;5093618;28;20194;-85
2022/01/03 04:28:20;;;;;;;24.83;3.93;;;10.70;99.90;;;;;;5093667;28;20516;-85
2022/01/03 04:30:53;;;;;;;19.63;3.90;;;10.80;99.90;;;;;;5093370;28;20209;-85
2022/01/03 04:33:25;;;;;;;19.77;3.70;;;10.60;99.90;;;;;;5093445;28;20216;-85
2022/01/03 04:35:58;;;;;;;18.13;3.90;;;10.60;99.90;;;;;;5093631;28;20199;-86
2022/01/03 04:38:32;;;;;;;22.37;4.00;;;10.70;99.90;;;;;;5093461;28;20189;-85
2022/01/03 04:41:06;;;;;;;17.93;3.43;;;10.70;99.90;;;;;;5095929;28;20369;-85
2022/01/03 04:43:37;;;;;;;25.50;4.07;;;10.70;99.90;;;;;;5097325;28;20193;-86
2022/01/03 04:46:05;;;;;;;16.93;4.03;;;10.70;99.90;;;;;;5097465;28;20241;-85
2022/01/03 04:48:35;;;;;;;17.20;3.60;;;10.70;99.90;;;;;;5097657;28;20626;-83
2022/01/03 04:51:05;;;;;;;19.93;3.50;;;10.80;99.90;;;;;;5096962;28;20667;-83
2022/01/03 04:53:37;;;;;;;18.77;3.27;;;10.80;99.90;;;;;;5097182;28;20202;-85
2022/01/03 04:56:04;;;;;;;20.97;3.80;;;10.70;99.90;;;;;;5097117;28;20235;-86
2022/01/03 04:58:36;;;;;;;22.33;4.47;;;10.70;99.90;;;;;;5096278;27;21013;-85
2022/01/03 05:01:21;;;;;;;11.43;3.10;;;10.70;99.90;;;;;;5097288;28;20197;-87
2022/01/03 05:03:48;;;;;;;18.83;3.60;;;10.70;99.90;;;;;;5097384;28;20190;-83
2022/01/03 05:06:18;;;;;;;23.87;3.40;;;10.70;99.90;;;;;;5096712;28;20582;-87
2022/01/03 05:08:46;;;;;;;16.93;3.30;;;10.70;99.90;;;;;;5096952;28;20197;-86
2022/01/03 05:11:14;;;;;;;16.90;3.90;;;10.60;99.90;;;;;;5096790;28;20197;-83
2022/01/03 05:13:44;;;;;;;22.03;3.40;;;10.50;99.90;;;;;;5097143;28;20562;-86
2022/01/03 05:16:13;;;;;;;14.23;3.13;;;10.60;99.90;;;;;;5096648;28;20671;-87
2022/01/03 05:18:42;;;;;;;20.90;3.57;;;10.60;99.90;;;;;;5096570;28;20194;-87
2022/01/03 05:21:09;;;;;;;17.90;3.43;;;10.70;99.90;;;;;;5096647;28;20201;-86
2022/01/03 05:23:42;;;;;;;17.33;3.70;;;10.60;99.90;;;;;;5095359;28;20201;-87
2022/01/03 05:26:12;;;;;;;15.20;3.10;;;10.60;99.90;;;;;;5095890;28;20194;-83
2022/01/03 05:28:45;;;;;;;19.70;3.40;;;10.60;99.90;;;;;;5096692;27;20220;-83
2022/01/03 05:31:18;;;;;;;23.30;3.63;;;10.50;99.90;;;;;;5096589;28;20193;-85
2022/01/03 05:33:48;;;;;;;19.20;3.77;;;10.50;99.90;;;;;;5096597;28;20280;-85
2022/01/03 05:36:15;;;;;;;22.27;3.53;;;10.50;99.90;;;;;;5096718;28;20216;-85
2022/01/03 05:38:44;;;;;;;27.80;5.37;;;10.50;99.90;;;;;;5096030;28;20622;-85
2022/01/03 05:41:16;;;;;;;20.47;3.67;;;10.50;99.90;;;;;;5096421;28;20212;-85
2022/01/03 05:43:52;;;;;;;25.73;3.83;;;10.30;99.90;;;;;;5096220;28;20648;-84
2022/01/03 05:46:19;;;;;;;19.33;3.40;;;10.20;99.90;;;;;;5096185;28;20232;-86
2022/01/03 05:48:49;;;;;;;23.63;4.73;;;10.10;99.90;;;;;;5095347;28;20201;-86
2022/01/03 05:51:27;;;;;;;22.53;4.13;;;10.10;99.90;;;;;;5095912;28;20204;-89
2022/01/03 05:54:00;;;;;;;25.23;4.77;;;10.10;99.90;;;;;;5096065;28;20203;-87
2022/01/03 05:56:27;;;;;;;26.23;3.83;;;10.20;99.90;;;;;;5094848;28;20247;-89
2022/01/03 05:58:55;;;;;;;23.80;4.10;;;10.20;99.90;;;;;;5094905;28;20201;-86
2022/01/03 06:01:23;;;;;;;22.97;3.67;;;10.10;99.90;;;;;;5095406;28;20205;-84
2022/01/03 06:04:01;;;;;;;23.77;4.40;;;10.20;99.90;;;;;;5096234;28;20292;-84
2022/01/03 06:06:53;;;;;;;17.50;4.13;;;10.20;99.90;;;;;;5095985;28;20205;-86
2022/01/03 06:09:23;;;;;;;21.60;4.33;;;10.20;99.90;;;;;;5095533;28;20237;-85
2022/01/03 06:11:53;;;;;;;23.80;4.17;;;10.20;99.90;;;;;;5095920;28;20258;-87
2022/01/03 06:14:25;;;;;;;23.57;3.87;;;10.20;99.90;;;;;;5094579;28;20668;-85
2022/01/03 06:16:54;;;;;;;26.80;4.65;;;10.20;99.90;;;;;;5095706;28;20090;-87
2022/01/03 06:19:24;;;;;;;20.60;4.03;;;10.20;99.90;;;;;;5094599;28;20310;-85
2022/01/03 06:21:51;;;;;;;17.53;3.83;;;10.30;99.90;;;;;;5094244;28;20266;-86
2022/01/03 06:24:19;;;;;;;20.53;3.70;;;10.40;99.90;;;;;;5077568;28;20270;-87
2022/01/03 06:26:50;;;;;;;21.23;3.47;;;10.30;99.90;;;;;;5094513;28;20301;-87
2022/01/03 06:29:19;;;;;;;15.83;3.47;;;10.30;99.90;;;;;;5095718;28;20198;-85
2022/01/03 06:31:50;;;;;;;22.57;3.87;;;10.40;99.90;;;;;;5095642;28;20215;-86
2022/01/03 06:34:19;;;;;;;26.17;4.20;;;10.30;99.90;;;;;;5095166;28;20209;-85
2022/01/03 06:36:54;;;;;;;22.00;3.70;;;10.40;99.90;;;;;;5093730;28;20233;-86
2022/01/03 06:39:20;;;;;;;20.27;3.77;;;10.40;99.90;;;;;;5093818;28;20377;-85
2022/01/03 06:41:53;;;;;;;21.97;3.43;;;10.40;99.90;;;;;;5094990;28;20208;-87
2022/01/03 06:44:20;;;;;;;23.17;4.60;;;10.40;99.90;;;;;;5095032;28;20221;-86
2022/01/03 06:46:51;;;;;;;15.33;3.40;;;10.30;99.90;;;;;;5094783;28;20225;-87
2022/01/03 06:49:20;;;;;;;17.00;3.63;;;10.30;99.90;;;;;;5094137;28;20193;-86
2022/01/03 06:51:48;;;;;;;19.13;3.53;;;10.40;99.90;;;;;;5081339;28;20198;-88
2022/01/03 06:54:25;;;;;;;15.40;3.33;;;10.40;99.90;;;;;;5090812;28;20201;-84
2022/01/03 06:56:54;;;;;;;16.30;3.67;;;10.40;99.90;;;;;;5094875;28;20201;-86
2022/01/03 06:59:24;;;;;;;23.17;3.50;;;10.40;99.90;;;;;;5094893;28;20284;-85
2022/01/03 07:01:53;;;;;;;22.00;4.13;;;10.40;99.90;;;;;;5094724;28;20193;-85
2022/01/03 07:04:20;;;;;;;15.10;3.30;;;10.40;99.90;;;;;;5095068;28;20565;-86
2022/01/03 07:06:48;;;;;;;18.17;3.70;;;10.40;99.90;;;;;;5094610;28;20556;-87
2022/01/03 07:09:17;;;;;;;20.50;4.13;;;10.40;99.90;;;;;;5094769;28;20212;-85
2022/01/03 07:11:46;;;;;;;19.00;3.73;;;10.40;99.90;;;;;;5093427;28;20705;-87
2022/01/03 07:19:56;;;;;;;22.37;3.50;;;10.50;99.90;;;;;;5074211;28;20225;-87
2022/01/03 07:22:29;;;;;;;14.73;4.13;;;10.40;99.90;;;;;;5074384;28;20186;-88
2022/01/03 07:24:59;;;;;;;14.37;3.13;;;10.50;99.90;;;;;;5074498;28;20210;-86
2022/01/03 07:27:28;;;;;;;20.33;5.13;;;10.50;99.90;;;;;;5074320;28;20212;-85
2022/01/03 07:29:55;;;;;;;17.03;3.17;;;10.60;99.90;;;;;;5074122;28;20775;-88
2022/01/03 07:32:29;;;;;;;21.47;3.60;;;10.60;99.90;;;;;;5074010;28;20206;-85
2022/01/03 07:34:58;;;;;;;16.93;3.50;;;10.60;99.90;;;;;;5073970;28;20201;-84
2022/01/03 07:37:26;;;;;;;21.43;4.00;;;10.50;99.90;;;;;;5074271;28;20197;-87
2022/01/03 07:39:54;;;;;;;21.83;4.93;;;10.50;99.90;;;;;;5076563;28;20232;-84
2022/01/03 07:42:24;;;;;;;23.00;4.17;;;10.50;99.90;;;;;;5091419;28;20306;-84
2022/01/03 07:44:52;;;;;;;19.47;3.77;;;10.60;99.90;;;;;;5094016;28;20213;-87
2022/01/03 07:47:19;;;;;;;22.20;4.50;;;10.60;99.90;;;;;;5075151;28;20209;-85
2022/01/03 07:49:48;;;;;;;18.20;3.83;;;10.70;99.90;;;;;;5078576;28;20198;-85
2022/01/03 07:52:21;;;;;;;22.57;4.10;;;10.60;99.90;;;;;;5084559;28;20205;-85
2022/01/03 07:54:52;;;;;;;17.97;4.30;;;10.60;99.90;;;;;;5093124;28;20196;-86
2022/01/03 07:57:22;;;;;;;22.43;3.90;;;10.60;99.90;;;;;;5082217;28;20194;-84
2022/01/03 07:59:50;;;;;;;19.80;3.80;;;10.60;99.90;;;;;;5081669;28;20221;-87
2022/01/03 08:02:20;;;;;;;20.10;3.57;;;10.60;99.90;;;;;;5092403;28;20193;-85
2022/01/03 08:04:48;;;;;;;23.23;4.17;;;10.60;99.90;;;;;;5093434;28;20197;-86
2022/01/03 08:07:17;;;;;;;16.50;4.43;;;10.70;99.90;;;;;;5088235;28;20202;-86
2022/01/03 08:09:47;;;;;;;26.97;5.43;;;10.70;99.90;;;;;;5078272;28;20189;-87
2022/01/03 08:12:14;;;;;;;25.80;3.70;;;10.60;99.90;;;;;;5081982;28;20209;-85
2022/01/03 08:14:42;;;;;;;21.05;4.68;;;10.60;99.90;;;;;;5082358;28;20454;-86
2022/01/03 08:17:08;;;;;;;20.50;4.40;;;10.60;99.90;;;;;;5081004;28;20198;-86
2022/01/03 08:19:38;;;;;;;21.93;4.57;;;10.60;99.90;;;;;;5088044;28;20225;-87
2022/01/03 08:22:07;;;;;;;19.90;4.63;;;10.60;99.90;;;;;;5082568;28;20201;-86
2022/01/03 08:24:34;;;;;;;22.63;4.10;;;10.70;99.90;;;;;;5080344;28;20190;-85
2022/01/03 08:27:03;;;;;;;21.27;4.30;;;10.60;99.90;;;;;;5071693;28;20201;-86
2022/01/03 08:29:30;;;;;;;18.43;4.33;;;10.60;99.90;;;;;;5078419;28;20205;-84
2022/01/03 08:31:57;;;;;;;20.33;4.60;;;10.60;99.90;;;;;;5089432;28;20210;-85
2022/01/03 08:34:25;;;;;;;21.33;3.77;;;10.50;99.90;;;;;;5087494;28;20630;-86
2022/01/03 08:36:53;;;;;;;23.10;4.70;;;10.60;99.90;;;;;;5080186;28;20190;-87
2022/01/03 08:39:21;;;;;;;19.40;5.37;;;10.60;99.90;;;;;;5073748;28;20209;-84
2022/01/03 08:41:51;;;;;;;20.77;3.93;;;10.70;99.90;;;;;;5075987;28;20264;-86
2022/01/03 08:44:18;;;;;;;24.30;4.57;;;10.70;99.90;;;;;;5082130;28;20205;-85
2022/01/03 08:46:46;;;;;;;21.03;4.37;;;10.70;99.90;;;;;;5078946;28;20229;-84
2022/01/03 08:49:13;;;;;;;16.83;4.17;;;10.70;99.90;;;;;;5083000;28;20308;-85
2022/01/03 08:51:40;;;;;;;14.80;3.80;;;10.70;99.90;;;;;;5084637;28;20198;-87
2022/01/03 08:54:07;;;;;;;16.97;4.07;;;10.70;99.90;;;;;;5082279;28;20224;-85
2022/01/03 08:56:38;;;;;;;20.47;4.03;;;10.70;99.90;;;;;;5078853;28;20213;-86
2022/01/03 08:59:06;;;;;;;18.40;3.87;;;10.70;99.90;;;;;;5086179;28;20201;-85
2022/01/03 09:01:33;;;;;;;15.70;3.80;;;10.60;99.90;;;;;;5072245;28;20230;-85
2022/01/03 09:04:00;;;;;;;20.70;4.37;;;10.70;99.90;;;;;;5071646;28;20269;-86
2022/01/03 09:06:28;;;;;;;15.30;4.03;;;10.70;99.90;;;;;;5073633;28;20203;-88
2022/01/03 09:08:55;;;;;;;19.57;4.13;;;10.70;99.90;;;;;;5092053;28;20238;-86
2022/01/03 09:11:26;;;;;;;17.00;3.17;;;10.70;99.90;;;;;;5092010;28;20302;-84
2022/01/03 09:13:56;;;;;;;15.03;2.97;;;10.60;99.90;;;;;;5092645;28;20254;-83
2022/01/03 09:16:24;;;;;;;22.53;4.17;;;10.60;99.90;;;;;;5091167;28;20580;-86
2022/01/03 09:18:51;;;;;;;18.10;3.60;;;10.60;99.90;;;;;;5092576;28;20189;-86
2022/01/03 09:21:19;;;;;;;21.37;4.13;;;10.70;99.90;;;;;;5092506;28;20224;-83
2022/01/03 09:23:54;;;;;;;18.90;3.70;;;10.70;99.90;;;;;;5084665;28;20198;-86
2022/01/03 09:29:08;;;;;;;16.47;4.13;;;10.80;99.90;;;;;;5076091;28;20236;-82
2022/01/03 09:31:38;;;;;;;19.57;4.70;;;10.90;99.90;;;;;;5075707;28;20186;-82
2022/01/03 09:34:08;;;;;;;11.53;3.33;;;10.90;99.90;;;;;;5076448;28;20251;-82
2022/01/03 09:36:40;;;;;;;17.40;3.90;;;10.80;99.90;;;;;;5075658;28;20190;-85
2022/01/03 09:39:08;;;;;;;20.57;4.53;;;10.90;99.90;;;;;;5075890;28;20228;-82
2022/01/03 09:41:56;;;;;;;15.20;3.93;;;10.80;99.90;;;;;;5075573;28;20230;-85
2022/01/03 09:44:30;;;;;;;10.30;3.63;;;10.70;99.90;;;;;;5074848;28;20186;-83
2022/01/03 09:47:01;;;;;;;16.30;3.80;;;10.80;99.90;;;;;;5075633;28;20210;-85
2022/01/03 09:49:34;;;;;;;13.87;4.13;;;10.90;99.90;;;;;;5075747;28;20664;-84
2022/01/03 09:52:05;;;;;;;25.57;5.03;;;11.10;99.90;;;;;;5075718;28;20198;-85
2022/01/03 09:54:34;;;;;;;22.40;4.27;;;11.00;99.90;;;;;;5075857;28;20263;-84
2022/01/03 09:57:04;;;;;;;19.37;4.07;;;10.90;99.90;;;;;;5075683;28;20213;-86
2022/01/03 09:59:37;;;;;;;20.40;4.83;;;10.80;99.90;;;;;;5075709;28;20197;-87
2022/01/03 10:02:06;;;;;;;27.17;5.10;;;10.70;99.90;;;;;;5078306;28;20291;-84
2022/01/03 10:04:34;;;;;;;23.23;4.57;;;10.70;99.90;;;;;;5086145;28;20338;-86
2022/01/03 10:07:02;;;;;;;19.43;5.10;;;10.70;99.90;;;;;;5081071;28;20198;-85
2022/01/03 10:09:31;;;;;;;28.83;5.00;;;10.70;99.90;;;;;;5075884;28;20210;-84
2022/01/03 10:12:00;;;;;;;25.10;5.10;;;10.70;99.90;;;;;;5075577;28;20190;-85
2022/01/03 10:14:27;;;;;;;24.47;4.80;;;10.70;99.90;;;;;;5074771;28;20194;-85
2022/01/03 10:16:56;;;;;;;21.03;4.73;;;10.70;99.90;;;;;;5075499;28;20186;-83
2022/01/03 10:19:26;;;;;;;23.23;4.17;;;10.70;99.90;;;;;;5075106;28;20684;-84
2022/01/03 10:21:54;;;;;;;21.27;4.30;;;10.50;99.90;;;;;;5075210;28;20220;-85
2022/01/03 10:24:32;;;;;;;14.90;4.53;;;10.50;99.90;;;;;;5075173;28;20198;-83
2022/01/03 10:27:00;;;;;;;24.13;4.93;;;10.50;99.90;;;;;;5074820;28;20202;-86
2022/01/03 10:29:28;;;;;;;26.97;5.10;;;10.60;99.90;;;;;;5074588;28;20280;-85
2022/01/03 10:32:00;;;;;;;19.93;4.60;;;10.50;99.90;;;;;;5074487;28;20304;-82
2022/01/03 10:34:28;;;;;;;27.40;4.97;;;10.60;99.90;;;;;;5074364;28;20209;-85
2022/01/03 10:36:57;;;;;;;32.50;5.83;;;10.60;99.90;;;;;;5074350;28;20202;-83
2022/01/03 10:39:28;;;;;;;25.37;5.40;;;10.60;99.90;;;;;;5074192;28;20224;-84
2022/01/03 10:42:12;;;;;;;23.17;4.37;;;10.70;99.90;;;;;;5074707;28;20229;-80
2022/01/03 10:44:41;;;;;;;19.63;4.40;;;10.60;99.90;;;;;;5074763;28;20638;-87
2022/01/03 10:47:13;;;;;;;27.70;5.00;;;10.60;99.90;;;;;;5075424;28;20202;-83
2022/01/03 10:49:41;;;;;;;28.53;5.07;;;10.70;99.90;;;;;;5075583;28;20246;-83
2022/01/03 10:52:16;;;;;;;26.00;4.63;;;10.70;99.90;;;;;;5074586;28;20665;-88
2022/01/03 10:55:10;;;;;;;26.80;5.17;;;10.80;99.90;;;;;;5075067;28;20198;-85
2022/01/03 10:57:54;;;;;;;28.40;4.73;;;10.80;99.90;;;;;;5074847;28;20269;-90
2022/01/03 11:00:30;;;;;;;34.53;5.77;;;10.90;99.90;;;;;;5074755;28;20204;-87
2022/01/03 11:03:21;;;;;;;16.07;3.73;;;10.90;99.90;;;;;;5083197;28;20558;-85
2022/01/03 11:05:54;;;;;;;26.60;5.70;;;10.90;99.90;;;;;;5074905;28;20210;-88
2022/01/03 11:11:08;;;;;;;19.63;4.20;;;10.90;99.90;;;;;;5074808;28;20227;-88
2022/01/03 11:13:44;;;;;;;22.13;4.17;;;10.80;99.90;;;;;;5074692;28;20277;-89
2022/01/03 11:16:16;;;;;;;22.43;4.60;;;10.80;99.90;;;;;;5075192;28;20190;-88
2022/01/03 11:18:51;;;;;;;25.73;5.07;;;10.80;99.90;;;;;;5075054;28;20210;-88
2022/01/03 11:21:24;;;;;;;26.53;5.30;;;10.70;99.90;;;;;;5073637;28;20225;-87
2022/01/03 11:24:06;;;;;;;19.10;4.27;;;10.60;99.90;;;;;;5079895;28;20251;-88
2022/01/03 11:26:40;;;;;;;21.07;4.50;;;10.60;99.90;;;;;;5090849;28;20473;-86
2022/01/03 11:29:09;;;;;;;19.63;3.73;;;10.50;99.90;;;;;;5082854;28;20755;-87
2022/01/03 11:31:40;;;;;;;15.07;3.47;;;10.50;99.90;;;;;;5086045;28;20251;-84
2022/01/03 11:34:11;;;;;;;15.10;3.13;;;10.40;99.90;;;;;;5082976;28;20634;-84
2022/01/03 11:36:40;;;;;;;11.10;2.87;;;10.30;99.90;;;;;;5083839;28;20205;-83
2022/01/03 11:39:14;;;;;;;16.37;2.97;;;10.20;99.90;;;;;;5085525;28;20676;-86
2022/01/03 11:41:44;;;;;;;11.73;3.20;;;10.10;99.90;;;;;;5084366;28;20213;-85
2022/01/03 11:44:12;;;;;;;17.27;3.57;;;10.10;99.90;;;;;;5073433;28;20198;-84
2022/01/03 11:46:46;;;;;;;14.03;3.30;;;10.10;99.90;;;;;;5073051;28;20218;-84
2022/01/03 11:49:20;;;;;;;19.20;3.73;;;10.10;99.90;;;;;;5072764;28;20656;-86
2022/01/03 11:51:51;;;;;;;18.80;3.90;;;10.20;99.90;;;;;;5073176;28;20563;-85
2022/01/03 11:54:22;;;;;;;18.50;3.70;;;10.30;99.90;;;;;;5072059;28;20206;-84
2022/01/03 11:57:06;;;;;;;17.17;3.90;;;10.20;99.90;;;;;;5073682;28;20194;-84
2022/01/03 12:03:36;;;;;;;14.07;3.33;;;10.20;99.90;;;;;;5073392;28;20208;-84
2022/01/03 12:05:13;;;;;;;26.10;4.20;;;10.10;99.90;;;;;;5071951;28;20239;-83
2022/01/03 12:07:57;;;;;;;12.37;3.30;;;10.10;99.90;;;;;;5071596;28;20586;-82
2022/01/03 12:10:24;;;;;;;13.83;3.33;;;10.00;99.90;;;;;;5070685;28;20596;-84
2022/01/03 12:13:00;;;;;;;19.23;3.73;;;10.10;99.90;;;;;;5073011;28;20198;-82
2022/01/03 12:15:32;;;;;;;19.57;3.50;;;10.10;99.90;;;;;;5072886;28;20205;-83
2022/01/03 12:18:00;;;;;;;15.13;3.10;;;10.00;99.90;;;;;;5073562;28;20200;-84
2022/01/03 12:20:46;;;;;;;16.47;3.70;;;10.00;99.90;;;;;;5073042;28;20204;-85
2022/01/03 12:23:39;;;;;;;19.60;3.63;;;9.90;99.90;;;;;;5072916;28;20225;-87
2022/01/03 12:26:13;;;;;;;10.70;3.43;;;9.90;99.90;;;;;;5073240;28;20205;-86
2022/01/03 12:29:07;;;;;;;11.97;3.20;;;9.90;99.90;;;;;;5073394;28;20224;-85
2022/01/03 12:32:15;;;;;;;7.27;2.00;;;9.90;99.90;;;;;;5072063;28;20216;-83
2022/01/03 12:34:42;;;;;;;15.50;3.07;;;9.90;99.90;;;;;;5073239;28;20569;-85
2022/01/03 12:37:19;;;;;;;10.30;2.80;;;9.90;99.90;;;;;;5073084;28;20202;-81
2022/01/03 12:40:15;;;;;;;12.80;2.93;;;9.80;99.90;;;;;;5073095;28;20204;-83
2022/01/03 12:42:58;;;;;;;9.33;2.63;;;9.80;99.90;;;;;;5074321;28;20221;-85
2022/01/03 12:45:50;;;;;;;13.30;3.75;;;9.80;99.90;;;;;;5072490;28;20427;-87
2022/01/03 12:48:19;;;;;;;13.47;2.60;;;9.90;99.90;;;;;;5073041;28;20388;-89
2022/01/03 12:51:04;;;;;;;7.27;1.93;;;9.80;99.90;;;;;;5074687;28;20252;-85
2022/01/03 12:53:51;;;;;;;7.47;2.00;;;9.80;99.90;;;;;;5073605;28;20190;-86
2022/01/03 12:56:28;;;;;;;9.23;1.73;;;9.80;99.90;;;;;;5074582;28;20190;-88
2022/01/03 12:58:58;;;;;;;7.07;1.97;;;9.70;99.90;;;;;;5075192;28;20301;-86
2022/01/03 13:01:30;;;;;;;5.73;1.83;;;9.70;99.90;;;;;;5075940;28;20229;-86
2022/01/03 13:03:59;;;;;;;7.83;2.30;;;9.70;99.90;;;;;;5081040;28;20227;-90
2022/01/03 13:06:31;;;;;;;7.93;2.07;;;9.70;99.90;;;;;;5082701;28;20227;-87
2022/01/03 13:09:07;;;;;;;9.37;2.43;;;9.60;99.90;;;;;;5081460;28;20573;-89
2022/01/03 13:11:35;;;;;;;5.40;1.60;;;9.60;99.90;;;;;;5080299;28;20576;-88
2022/01/03 13:14:05;;;;;;;4.27;1.43;;;9.50;99.90;;;;;;5078759;28;20263;-88
2022/01/03 13:16:34;;;;;;;6.90;1.83;;;9.50;99.90;;;;;;5076901;28;20594;-85
2022/01/03 13:19:02;;;;;;;7.10;1.73;;;9.50;99.90;;;;;;5077106;28;20186;-85